createdAt,value
2018-02-07T00:00:16.942Z,90.60
2018-02-07T00:02:44.524Z,90.70
2018-02-07T00:05:12.024Z,90.70
2018-02-07T00:07:39.504Z,90.60
2018-02-07T00:10:07.005Z,90.50
2018-02-07T00:12:34.493Z,90.60
2018-02-07T00:15:01.996Z,90.50
2018-02-07T00:17:29.957Z,90.40
2018-02-07T00:19:57.536Z,90.40
2018-02-07T00:22:25.406Z,90.60
2018-02-07T00:24:52.898Z,90.60
2018-02-07T00:27:20.776Z,90.40
2018-02-07T00:29:48.677Z,90.40
2018-02-07T00:32:16.168Z,90.40
2018-02-07T00:34:43.670Z,90.30
2018-02-07T00:37:11.159Z,90.20
2018-02-07T00:39:39.056Z,90.10
2018-02-07T00:42:06.573Z,90.10
2018-02-07T00:44:34.075Z,90.30
2018-02-07T00:47:01.564Z,90.00
2018-02-07T00:49:29.467Z,90.50
2018-02-07T00:51:56.976Z,90.50
2018-02-07T00:54:24.460Z,90.50
2018-02-07T00:56:51.956Z,90.20
2018-02-07T00:59:19.434Z,90.20
2018-02-07T01:01:46.952Z,90.10
2018-02-07T01:04:14.439Z,89.80
2018-02-07T01:06:41.949Z,89.70
2018-02-07T01:09:09.496Z,89.90
2018-02-07T01:11:37.387Z,89.90
2018-02-07T01:14:04.876Z,90.00
2018-02-07T01:16:32.376Z,90.20
2018-02-07T01:18:59.891Z,90.10
2018-02-07T01:21:27.778Z,90.40
2018-02-07T01:23:55.660Z,90.50
2018-02-07T01:26:23.567Z,90.40
2018-02-07T01:28:51.104Z,90.40
2018-02-07T01:31:18.996Z,90.30
2018-02-07T01:33:46.480Z,90.30
2018-02-07T01:36:13.976Z,90.40
2018-02-07T01:38:41.450Z,90.30
2018-02-07T01:41:08.957Z,90.00
2018-02-07T01:43:36.836Z,89.90
2018-02-07T01:46:04.331Z,89.90
2018-02-07T01:48:31.820Z,89.90
2018-02-07T01:50:59.337Z,89.70
2018-02-07T01:53:26.852Z,89.70
2018-02-07T01:55:54.352Z,90.00
2018-02-07T01:58:21.832Z,90.00
2018-02-07T02:00:49.336Z,90.20
2018-02-07T02:03:17.212Z,90.10
2018-02-07T02:05:45.109Z,90.20
2018-02-07T02:08:12.996Z,90.20
2018-02-07T02:10:40.487Z,90.20
2018-02-07T02:13:07.967Z,90.00
2018-02-07T02:15:35.453Z,90.00
2018-02-07T02:18:02.971Z,89.90
2018-02-07T02:20:30.451Z,89.90
2018-02-07T02:22:57.947Z,89.80
2018-02-07T02:25:25.427Z,89.90
2018-02-07T02:27:53.022Z,90.00
2018-02-07T02:30:20.603Z,89.80
2018-02-07T02:32:48.100Z,89.90
2018-02-07T02:35:15.580Z,89.90
2018-02-07T02:37:43.076Z,89.70
2018-02-07T02:40:10.582Z,89.80
2018-02-07T02:42:38.089Z,89.80
2018-02-07T02:45:05.576Z,90.00
2018-02-07T02:47:33.100Z,89.80
2018-02-07T02:50:00.676Z,89.90
2018-02-07T02:52:28.166Z,89.80
2018-02-07T02:54:55.716Z,90.00
2018-02-07T02:57:23.211Z,89.80
2018-02-07T02:59:50.697Z,89.50
2018-02-07T03:02:18.187Z,89.50
2018-02-07T03:04:45.658Z,89.60
2018-02-07T03:07:13.148Z,89.80
2018-02-07T03:09:40.660Z,89.70
2018-02-07T03:12:08.164Z,89.70
2018-02-07T03:14:35.638Z,89.80
2018-02-07T03:17:03.133Z,89.80
2018-02-07T03:19:30.624Z,90.00
2018-02-07T03:21:58.515Z,90.00
2018-02-07T03:24:26.391Z,89.80
2018-02-07T03:26:54.360Z,90.00
2018-02-07T03:29:21.932Z,90.00
2018-02-07T03:31:49.441Z,90.30
2018-02-07T03:34:16.932Z,90.30
2018-02-07T03:36:44.416Z,90.30
2018-02-07T03:39:11.911Z,90.20
2018-02-07T03:41:39.404Z,90.20
2018-02-07T03:44:07.305Z,89.70
2018-02-07T03:46:34.787Z,89.70
2018-02-07T03:49:02.291Z,90.00
2018-02-07T03:51:29.775Z,90.00
2018-02-07T03:53:57.284Z,90.20
2018-02-07T03:56:24.772Z,90.30
2018-02-07T03:58:52.270Z,90.00
2018-02-07T04:01:19.764Z,90.40
2018-02-07T04:03:47.664Z,90.40
2018-02-07T04:06:15.152Z,90.40
2018-02-07T04:08:42.655Z,90.30
2018-02-07T04:11:10.148Z,89.90
2018-02-07T04:13:37.728Z,90.00
2018-02-07T04:16:05.615Z,90.30
2018-02-07T04:18:33.520Z,90.40
2018-02-07T04:21:01.061Z,90.40
2018-02-07T04:23:28.960Z,89.60
2018-02-07T04:25:56.449Z,89.60
2018-02-07T04:28:23.964Z,89.90
2018-02-07T04:30:51.460Z,89.70
2018-02-07T04:33:19.365Z,89.80
2018-02-07T04:35:46.904Z,89.80
2018-02-07T04:38:14.879Z,89.90
2018-02-07T04:40:42.360Z,89.80
2018-02-07T04:43:10.256Z,89.70
2018-02-07T04:45:37.734Z,89.70
2018-02-07T04:48:05.234Z,89.80
2018-02-07T04:50:32.728Z,89.60
2018-02-07T04:53:00.247Z,89.70
2018-02-07T04:55:27.735Z,89.90
2018-02-07T04:57:55.216Z,89.80
2018-02-07T05:00:22.724Z,89.70
2018-02-07T05:02:50.300Z,89.70
2018-02-07T05:05:18.237Z,90.10
2018-02-07T05:07:45.734Z,90.10
2018-02-07T05:10:13.244Z,90.00
2018-02-07T05:12:40.731Z,89.90
2018-02-07T05:15:08.237Z,90.00
2018-02-07T05:17:35.714Z,89.70
2018-02-07T05:20:03.220Z,89.80
2018-02-07T05:22:31.104Z,89.70
2018-02-07T05:24:58.612Z,89.70
2018-02-07T05:27:26.098Z,89.60
2018-02-07T05:29:53.600Z,89.70
2018-02-07T05:32:21.479Z,89.70
2018-02-07T05:34:49.371Z,89.30
2018-02-07T05:37:17.253Z,89.50
2018-02-07T05:39:45.211Z,89.40
2018-02-07T05:42:12.697Z,89.40
2018-02-07T05:44:40.658Z,89.80
2018-02-07T05:47:08.144Z,89.80
2018-02-07T05:49:36.044Z,89.60
2018-02-07T05:52:03.588Z,89.70
2018-02-07T05:54:31.096Z,89.50
2018-02-07T05:56:58.588Z,89.50
2018-02-07T05:59:26.098Z,89.70
2018-02-07T06:01:53.600Z,89.80
2018-02-07T06:04:21.104Z,89.60
2018-02-07T06:06:48.588Z,89.60
2018-02-07T06:09:16.092Z,89.70
2018-02-07T06:11:43.972Z,90.00
2018-02-07T06:14:11.868Z,90.00
2018-02-07T06:16:39.420Z,90.00
2018-02-07T06:19:07.324Z,89.80
2018-02-07T06:21:34.812Z,89.80
2018-02-07T06:24:02.356Z,89.70
2018-02-07T06:26:30.237Z,89.30
2018-02-07T06:28:58.114Z,89.20
2018-02-07T06:31:25.662Z,89.20
2018-02-07T06:33:53.144Z,89.50
2018-02-07T06:36:20.644Z,89.30
2018-02-07T06:38:48.140Z,89.10
2018-02-07T06:41:15.653Z,89.50
2018-02-07T06:43:43.536Z,89.60
2018-02-07T06:46:11.436Z,89.40
2018-02-07T06:48:38.919Z,89.40
2018-02-07T06:51:06.440Z,89.30
2018-02-07T06:53:33.922Z,89.50
2018-02-07T06:56:01.492Z,89.70
2018-02-07T06:58:28.971Z,89.80
2018-02-07T07:00:56.871Z,89.40
2018-02-07T07:03:24.354Z,89.40
2018-02-07T07:05:51.865Z,89.60
2018-02-07T07:08:19.360Z,89.60
2018-02-07T07:10:47.263Z,89.30
2018-02-07T07:13:14.810Z,89.30
2018-02-07T07:15:42.314Z,89.30
2018-02-07T07:18:09.801Z,89.10
2018-02-07T07:20:37.304Z,88.90
2018-02-07T07:23:04.886Z,89.20
2018-02-07T07:25:32.388Z,89.00
2018-02-07T07:27:59.872Z,89.00
2018-02-07T07:30:27.376Z,88.60
2018-02-07T07:32:54.855Z,88.90
2018-02-07T07:35:22.351Z,88.70
2018-02-07T07:37:50.332Z,88.90
2018-02-07T07:40:18.223Z,88.30
2018-02-07T07:42:46.185Z,88.10
2018-02-07T07:45:13.688Z,88.10
2018-02-07T07:47:41.166Z,88.30
2018-02-07T07:50:08.675Z,88.00
2018-02-07T07:52:36.161Z,88.00
2018-02-07T07:55:03.646Z,88.00
2018-02-07T07:57:31.560Z,88.00
2018-02-07T07:59:59.038Z,88.00
2018-02-07T08:02:26.551Z,87.90
2018-02-07T08:04:54.053Z,87.50
2018-02-07T08:07:21.556Z,96.50
2018-02-07T08:09:49.067Z,75.60
2018-02-07T08:12:16.573Z,76.90
2018-02-07T08:14:44.059Z,78.50
2018-02-07T08:17:11.560Z,80.20
2018-02-07T08:19:39.048Z,81.10
2018-02-07T08:22:06.619Z,82.10
2018-02-07T08:24:34.100Z,82.80
2018-02-07T08:27:01.995Z,84.70
2018-02-07T08:29:29.880Z,85.00
2018-02-07T08:31:57.371Z,85.00
2018-02-07T08:34:24.857Z,85.20
2018-02-07T08:36:52.356Z,85.20
2018-02-07T08:39:19.832Z,86.10
2018-02-07T08:41:47.432Z,81.30
2018-02-07T08:44:14.920Z,80.30
2018-02-07T08:46:42.423Z,81.20
2018-02-07T08:49:09.920Z,81.70
2018-02-07T08:51:37.410Z,82.50
2018-02-07T08:54:05.292Z,83.40
2018-02-07T08:56:32.802Z,83.40
2018-02-07T08:59:00.292Z,84.30
2018-02-07T09:01:27.788Z,84.60
2018-02-07T09:03:55.668Z,84.70
2018-02-07T09:06:23.559Z,84.30
2018-02-07T09:08:51.436Z,84.20
2018-02-07T09:11:19.342Z,84.50
2018-02-07T09:13:46.823Z,84.50
2018-02-07T09:16:14.319Z,83.50
2018-02-07T09:18:41.801Z,83.50
2018-02-07T09:21:09.312Z,84.00
2018-02-07T09:23:36.816Z,83.60
2018-02-07T09:26:04.303Z,83.80
2018-02-07T09:28:31.813Z,83.70
2018-02-07T09:30:59.686Z,84.10
2018-02-07T09:33:27.581Z,84.10
2018-02-07T09:35:55.064Z,84.10
2018-02-07T09:38:22.569Z,83.90
2018-02-07T09:40:50.048Z,84.30
2018-02-07T09:43:17.548Z,84.00
2018-02-07T09:45:45.511Z,83.60
2018-02-07T09:48:13.015Z,83.60
2018-02-07T09:50:40.496Z,83.10
2018-02-07T09:53:07.996Z,82.60
2018-02-07T09:55:35.477Z,82.90
2018-02-07T09:58:02.971Z,82.00
2018-02-07T10:00:30.454Z,83.20
2018-02-07T10:02:58.426Z,76.50
2018-02-07T10:05:25.904Z,76.40
2018-02-07T10:07:53.811Z,77.10
2018-02-07T10:10:21.287Z,77.10
2018-02-07T10:12:48.792Z,75.60
2018-02-07T10:15:16.272Z,77.00
2018-02-07T10:17:43.771Z,77.30
2018-02-07T10:20:11.656Z,77.30
2018-02-07T10:22:39.577Z,77.40
2018-02-07T10:25:07.092Z,77.40
2018-02-07T10:27:34.995Z,76.30
2018-02-07T10:30:02.489Z,76.30
2018-02-07T10:32:29.996Z,76.70
2018-02-07T10:34:57.530Z,77.40
2018-02-07T10:37:25.025Z,76.60
2018-02-07T10:39:52.515Z,76.50
2018-02-07T10:42:20.016Z,75.90
2018-02-07T10:44:47.501Z,76.70
2018-02-07T10:47:15.008Z,76.90
2018-02-07T10:49:42.482Z,77.10
2018-02-07T10:52:09.968Z,76.40
2018-02-07T10:54:37.472Z,77.10
2018-02-07T10:57:04.956Z,77.10
2018-02-07T10:59:32.461Z,78.10
2018-02-07T11:01:59.934Z,78.10
2018-02-07T11:04:27.431Z,79.60
2018-02-07T11:06:55.312Z,78.50
2018-02-07T11:09:23.208Z,79.10
2018-02-07T11:11:50.692Z,79.10
2018-02-07T11:14:18.192Z,78.70
2018-02-07T11:16:45.680Z,79.10
2018-02-07T11:19:13.180Z,78.00
2018-02-07T11:21:41.056Z,78.80
2018-02-07T11:24:08.947Z,78.30
2018-02-07T11:26:36.431Z,78.30
2018-02-07T11:29:03.928Z,81.80
2018-02-07T11:31:31.412Z,75.10
2018-02-07T11:33:58.906Z,76.60
2018-02-07T11:36:26.484Z,77.20
2018-02-07T11:38:54.366Z,77.60
2018-02-07T11:41:22.244Z,78.50
2018-02-07T11:43:50.147Z,79.30
2018-02-07T11:46:17.628Z,79.30
2018-02-07T11:48:45.165Z,79.10
2018-02-07T11:51:13.048Z,79.50
2018-02-07T11:53:40.935Z,79.70
2018-02-07T11:56:08.810Z,79.60
2018-02-07T11:58:36.709Z,78.80
2018-02-07T12:01:04.184Z,78.80
2018-02-07T12:03:31.728Z,80.20
2018-02-07T12:05:59.608Z,79.30
2018-02-07T12:08:27.512Z,79.70
2018-02-07T12:10:55.030Z,79.70
2018-02-07T12:13:22.539Z,79.40
2018-02-07T12:15:50.420Z,78.90
2018-02-07T12:18:18.296Z,79.10
2018-02-07T12:20:46.195Z,78.90
2018-02-07T12:23:13.684Z,78.90
2018-02-07T12:25:41.211Z,79.20
2018-02-07T12:28:09.086Z,78.00
2018-02-07T12:30:37.021Z,78.40
2018-02-07T12:33:04.509Z,78.40
2018-02-07T12:35:32.097Z,78.10
2018-02-07T12:37:59.589Z,79.60
2018-02-07T12:40:27.506Z,79.40
2018-02-07T12:42:54.992Z,79.40
2018-02-07T12:45:22.514Z,80.00
2018-02-07T12:47:50.393Z,80.90
2018-02-07T12:50:18.279Z,80.30
2018-02-07T12:52:45.764Z,80.30
2018-02-07T12:55:13.259Z,80.40
2018-02-07T12:57:40.749Z,80.70
2018-02-07T13:00:08.252Z,80.40
2018-02-07T13:02:36.138Z,80.30
2018-02-07T13:05:04.042Z,80.80
2018-02-07T13:07:32.358Z,80.90
2018-02-07T13:09:59.857Z,80.30
2018-02-07T13:12:27.340Z,80.90
2018-02-07T13:14:55.240Z,81.50
2018-02-07T13:17:22.784Z,81.50
2018-02-07T13:19:50.684Z,79.90
2018-02-07T13:22:18.163Z,79.90
2018-02-07T13:24:45.668Z,80.30
2018-02-07T13:27:13.149Z,80.50
2018-02-07T13:29:40.649Z,80.10
2018-02-07T13:32:08.528Z,76.20
2018-02-07T13:34:36.536Z,84.20
2018-02-07T13:37:04.075Z,84.10
2018-02-07T13:39:31.579Z,75.30
2018-02-07T13:41:59.068Z,76.40
2018-02-07T13:44:26.728Z,77.60
2018-02-07T13:46:54.228Z,78.80
2018-02-07T13:49:21.712Z,78.60
2018-02-07T13:51:49.218Z,78.90
2018-02-07T13:54:17.100Z,79.50
2018-02-07T13:56:44.996Z,79.40
2018-02-07T13:59:12.475Z,79.40
2018-02-07T14:01:39.972Z,79.50
2018-02-07T14:04:07.509Z,79.00
2018-02-07T14:06:35.380Z,79.50
2018-02-07T14:09:02.860Z,79.40
2018-02-07T14:11:30.365Z,79.30
2018-02-07T14:13:57.843Z,79.80
2018-02-07T14:16:25.347Z,79.50
2018-02-07T14:18:53.229Z,79.20
2018-02-07T14:21:20.764Z,79.20
2018-02-07T14:23:48.252Z,79.20
2018-02-07T14:26:15.870Z,78.80
2018-02-07T14:28:43.365Z,79.60
2018-02-07T14:31:10.903Z,79.70
2018-02-07T14:33:38.387Z,79.50
2018-02-07T14:36:05.980Z,78.80
2018-02-07T14:38:33.464Z,78.80
2018-02-07T14:41:01.157Z,78.90
2018-02-07T14:43:28.669Z,79.20
2018-02-07T14:45:56.364Z,79.00
2018-02-07T14:48:23.839Z,79.10
2018-02-07T14:50:51.681Z,79.20
2018-02-07T14:53:19.167Z,78.80
2018-02-07T14:55:46.740Z,78.30
2018-02-07T14:58:14.232Z,77.90
2018-02-07T15:00:41.868Z,77.50
2018-02-07T15:03:09.347Z,77.50
2018-02-07T15:05:36.911Z,77.00
2018-02-07T15:08:04.429Z,77.30
2018-02-07T15:10:31.927Z,77.10
2018-02-07T15:12:59.408Z,76.70
2018-02-07T15:15:27.289Z,76.70
2018-02-07T15:17:55.184Z,76.90
2018-02-07T15:20:22.673Z,76.80
2018-02-07T15:22:50.200Z,76.90
2018-02-07T15:25:18.075Z,76.20
2018-02-07T15:27:45.576Z,76.20
2018-02-07T15:30:13.060Z,77.00
2018-02-07T15:32:40.559Z,76.10
2018-02-07T15:35:08.040Z,75.90
2018-02-07T15:37:35.560Z,76.40
2018-02-07T15:40:03.044Z,76.60
2018-02-07T15:42:30.544Z,76.90
2018-02-07T15:44:58.028Z,76.20
2018-02-07T15:47:25.583Z,76.60
2018-02-07T15:49:53.034Z,76.50
2018-02-07T15:52:20.551Z,75.80
2018-02-07T15:54:48.030Z,75.90
2018-02-07T15:57:16.004Z,76.20
2018-02-07T15:59:43.499Z,76.20
2018-02-07T16:02:10.994Z,76.60
2018-02-07T16:04:38.515Z,76.60
2018-02-07T16:07:06.016Z,77.10
2018-02-07T16:09:33.500Z,77.00
2018-02-07T16:12:01.000Z,76.30
2018-02-07T16:14:28.484Z,76.40
2018-02-07T16:16:55.988Z,76.10
2018-02-07T16:19:23.864Z,75.50
2018-02-07T16:21:51.754Z,76.00
2018-02-07T16:24:19.234Z,76.00
2018-02-07T16:26:46.754Z,75.80
2018-02-07T16:29:14.236Z,76.00
2018-02-07T16:31:41.806Z,76.20
2018-02-07T16:34:09.365Z,76.80
2018-02-07T16:36:36.873Z,76.90
2018-02-07T16:39:04.432Z,77.00
2018-02-07T16:41:31.936Z,77.20
2018-02-07T16:43:59.420Z,77.20
2018-02-07T16:46:26.913Z,77.80
2018-02-07T16:48:54.412Z,77.80
2018-02-07T16:51:22.288Z,76.60
2018-02-07T16:53:49.785Z,76.60
2018-02-07T16:56:17.273Z,77.20
2018-02-07T16:58:44.804Z,77.20
2018-02-07T17:01:12.288Z,77.70
2018-02-07T17:03:40.187Z,77.50
2018-02-07T17:06:07.680Z,77.50
2018-02-07T17:08:35.186Z,78.10
2018-02-07T17:11:03.085Z,78.20
2018-02-07T17:13:31.060Z,77.70
2018-02-07T17:15:58.948Z,78.20
2018-02-07T17:18:26.864Z,78.10
2018-02-07T17:20:54.352Z,78.10
2018-02-07T17:23:21.872Z,78.10
2018-02-07T17:25:49.752Z,78.50
2018-02-07T17:28:17.652Z,78.50
2018-02-07T17:30:45.131Z,78.50
2018-02-07T17:33:12.632Z,78.60
2018-02-07T17:35:40.110Z,78.50
2018-02-07T17:38:07.700Z,78.70
2018-02-07T17:40:35.270Z,79.10
2018-02-07T17:43:02.780Z,79.20
2018-02-07T17:45:30.292Z,78.90
2018-02-07T17:47:57.790Z,78.90
2018-02-07T17:50:25.670Z,78.60
2018-02-07T17:52:53.564Z,78.50
2018-02-07T17:55:21.435Z,78.30
2018-02-07T17:57:49.340Z,78.70
2018-02-07T18:00:16.819Z,78.60
2018-02-07T18:02:44.325Z,79.00
2018-02-07T18:05:11.842Z,79.10
2018-02-07T18:07:39.389Z,78.80
2018-02-07T18:10:06.865Z,78.60
2018-02-07T18:12:34.764Z,79.00
2018-02-07T18:15:02.255Z,79.00
2018-02-07T18:17:29.736Z,78.90
2018-02-07T18:19:57.251Z,79.10
2018-02-07T18:22:24.828Z,78.60
2018-02-07T18:24:52.724Z,78.60
2018-02-07T18:27:20.624Z,78.60
2018-02-07T18:29:48.148Z,78.60
2018-02-07T18:32:15.631Z,78.90
2018-02-07T18:34:43.560Z,79.30
2018-02-07T18:37:11.088Z,79.30
2018-02-07T18:39:39.064Z,80.00
2018-02-07T18:42:06.939Z,80.10
2018-02-07T18:44:34.439Z,80.10
2018-02-07T18:47:01.915Z,80.20
2018-02-07T18:49:29.444Z,80.80
2018-02-07T18:51:56.928Z,80.20
2018-02-07T18:54:24.851Z,80.30
2018-02-07T18:56:52.327Z,80.30
2018-02-07T18:59:19.851Z,80.00
2018-02-07T19:01:47.740Z,79.90
2018-02-07T19:04:15.647Z,79.60
2018-02-07T19:06:43.168Z,79.60
2018-02-07T19:09:10.701Z,79.60
2018-02-07T19:11:38.199Z,79.40
2018-02-07T19:14:05.699Z,79.60
2018-02-07T19:16:33.574Z,79.90
2018-02-07T19:19:01.484Z,82.00
2018-02-07T19:21:28.978Z,82.00
2018-02-07T19:23:56.497Z,83.60
2018-02-07T19:26:24.456Z,78.20
2018-02-07T19:28:51.947Z,78.20
2018-02-07T19:31:19.840Z,79.50
2018-02-07T19:33:47.376Z,79.50
2018-02-07T19:36:14.895Z,79.90
2018-02-07T19:38:42.396Z,80.10
2018-02-07T19:41:09.929Z,80.50
2018-02-07T19:43:37.475Z,80.80
2018-02-07T19:46:04.990Z,81.30
2018-02-07T19:48:32.488Z,79.60
2018-02-07T19:50:59.993Z,79.10
2018-02-07T19:53:27.955Z,79.80
2018-02-07T19:55:55.473Z,79.80
2018-02-07T19:58:23.012Z,80.10
2018-02-07T20:00:50.512Z,80.30
2018-02-07T20:03:18.000Z,80.60
2018-02-07T20:05:45.508Z,80.80
2018-02-07T20:08:13.096Z,80.80
2018-02-07T20:10:41.021Z,81.10
2018-02-07T20:13:08.535Z,81.10
2018-02-07T20:15:36.041Z,81.20
2018-02-07T20:18:03.594Z,81.50
2018-02-07T20:20:31.487Z,81.30
2018-02-07T20:22:59.445Z,81.50
2018-02-07T20:25:26.948Z,81.50
2018-02-07T20:27:54.540Z,81.60
2018-02-07T20:30:22.047Z,81.60
2018-02-07T20:32:49.540Z,81.70
2018-02-07T20:35:17.040Z,81.90
2018-02-07T20:37:44.592Z,81.60
2018-02-07T20:40:12.514Z,81.70
2018-02-07T20:42:40.009Z,81.70
2018-02-07T20:45:07.515Z,81.90
2018-02-07T20:47:35.488Z,82.10
2018-02-07T20:50:03.391Z,82.10
2018-02-07T20:52:30.991Z,82.10
2018-02-07T20:54:58.494Z,81.90
2018-02-07T20:57:25.984Z,82.10
2018-02-07T20:59:53.882Z,81.90
2018-02-07T21:02:21.367Z,81.90
2018-02-07T21:04:48.872Z,82.10
2018-02-07T21:07:16.360Z,82.00
2018-02-07T21:09:43.864Z,81.80
2018-02-07T21:12:11.352Z,81.70
2018-02-07T21:14:38.845Z,81.60
2018-02-07T21:17:06.347Z,81.90
2018-02-07T21:19:33.854Z,81.70
2018-02-07T21:22:01.356Z,81.60
2018-02-07T21:24:28.838Z,81.80
2018-02-07T21:26:56.358Z,81.70
2018-02-07T21:29:23.859Z,81.60
2018-02-07T21:31:51.355Z,81.50
2018-02-07T21:34:18.845Z,81.50
2018-02-07T21:36:46.738Z,81.00
2018-02-07T21:39:14.628Z,81.10
2018-02-07T21:41:42.153Z,81.10
2018-02-07T21:44:09.657Z,81.10
2018-02-07T21:46:37.560Z,81.60
2018-02-07T21:49:05.051Z,81.60
2018-02-07T21:51:32.568Z,81.80
2018-02-07T21:54:00.055Z,82.00
2018-02-07T21:56:27.948Z,82.30
2018-02-07T21:58:55.444Z,82.30
2018-02-07T22:01:22.944Z,82.20
2018-02-07T22:03:50.428Z,82.80
2018-02-07T22:06:18.003Z,82.50
2018-02-07T22:08:45.883Z,82.80
2018-02-07T22:11:13.787Z,82.80
2018-02-07T22:13:41.275Z,82.70
2018-02-07T22:16:08.784Z,82.90
2018-02-07T22:18:36.280Z,83.10
2018-02-07T22:21:04.247Z,83.40
2018-02-07T22:23:31.741Z,83.40
2018-02-07T22:25:59.651Z,83.50
2018-02-07T22:28:27.134Z,83.50
2018-02-07T22:30:54.667Z,83.50
2018-02-07T22:33:22.171Z,83.70
2018-02-07T22:35:49.689Z,83.60
2018-02-07T22:38:17.571Z,83.30
2018-02-07T22:40:45.471Z,83.10
2018-02-07T22:43:12.978Z,83.10
2018-02-07T22:45:40.459Z,82.40
2018-02-07T22:48:08.060Z,83.10
2018-02-07T22:50:35.548Z,83.00
2018-02-07T22:53:03.483Z,83.00
2018-02-07T22:55:30.968Z,83.00
2018-02-07T22:57:58.552Z,83.40
2018-02-07T23:00:26.036Z,83.80
2018-02-07T23:02:53.952Z,84.10
2018-02-07T23:05:21.480Z,84.10
2018-02-07T23:07:49.046Z,84.10
2018-02-07T23:10:16.930Z,84.00
2018-02-07T23:12:44.435Z,84.00
2018-02-07T23:15:11.924Z,84.00
2018-02-07T23:17:39.432Z,83.70
2018-02-07T23:20:06.910Z,83.80
2018-02-07T23:22:34.420Z,83.70
2018-02-07T23:25:01.908Z,83.30
2018-02-07T23:27:29.412Z,83.30
2018-02-07T23:29:56.996Z,83.10
2018-02-07T23:32:24.988Z,83.50
2018-02-07T23:34:52.873Z,83.60
2018-02-07T23:37:20.775Z,83.70
2018-02-07T23:39:48.260Z,83.70
2018-02-07T23:42:15.759Z,84.00
2018-02-07T23:44:43.244Z,84.20
2018-02-07T23:47:10.752Z,84.40
2018-02-07T23:49:38.249Z,83.80
2018-02-07T23:52:05.755Z,83.90
2018-02-07T23:54:33.240Z,84.10
2018-02-07T23:57:01.140Z,84.60
2018-02-07T23:59:28.632Z,84.60
